sensor_id;sensor_type;location;lat;lon;timestamp;pressure;altitude;pressure_sealevel;temperature
69415;BMP280;56608;43.530;-5.652;2023-02-22T00:00:47;101685.56;;;13.88
69415;BMP280;56608;43.530;-5.652;2023-02-22T00:01:50;101689.03;;;13.89
69415;BMP280;56608;43.530;-5.652;2023-02-22T00:03:24;101703.91;;;13.81
69415;BMP280;56608;43.530;-5.652;2023-02-22T00:04:25;101702.09;;;13.78
69415;BMP280;56608;43.530;-5.652;2023-02-22T00:05:28;101694.47;;;13.73
69415;BMP280;56608;43.530;-5.652;2023-02-22T00:06:32;101695.34;;;13.69
69415;BMP280;56608;43.530;-5.652;2023-02-22T00:07:33;101699.16;;;13.72
69415;BMP280;56608;43.530;-5.652;2023-02-22T00:08:36;101691.25;;;13.65
69415;BMP280;56608;43.530;-5.652;2023-02-22T00:09:37;101691.34;;;13.61
69415;BMP280;56608;43.530;-5.652;2023-02-22T00:10:39;101685.09;;;13.64
69415;BMP280;56608;43.530;-5.652;2023-02-22T00:11:45;101692.09;;;13.75
69415;BMP280;56608;43.530;-5.652;2023-02-22T00:12:48;101692.44;;;13.77
69415;BMP280;56608;43.530;-5.652;2023-02-22T00:13:49;101684.75;;;13.75
69415;BMP280;56608;43.530;-5.652;2023-02-22T00:14:51;101688.78;;;13.70
69415;BMP280;56608;43.530;-5.652;2023-02-22T00:15:52;101682.59;;;13.70
69415;BMP280;56608;43.530;-5.652;2023-02-22T00:16:54;101692.09;;;13.75
69415;BMP280;56608;43.530;-5.652;2023-02-22T00:18:00;101689.62;;;13.67
69415;BMP280;56608;43.530;-5.652;2023-02-22T00:19:01;101688.09;;;13.66
69415;BMP280;56608;43.530;-5.652;2023-02-22T00:20:02;101702.56;;;13.73
69415;BMP280;56608;43.530;-5.652;2023-02-22T00:21:06;101684.41;;;13.60
69415;BMP280;56608;43.530;-5.652;2023-02-22T00:22:10;101682.19;;;13.59
69415;BMP280;56608;43.530;-5.652;2023-02-22T00:23:20;101689.94;;;13.69
69415;BMP280;56608;43.530;-5.652;2023-02-22T00:24:22;101688.44;;;13.68
69415;BMP280;56608;43.530;-5.652;2023-02-22T00:25:24;101686.69;;;13.62
69415;BMP280;56608;43.530;-5.652;2023-02-22T00:26:24;101686.69;;;13.62
69415;BMP280;56608;43.530;-5.652;2023-02-22T00:27:26;101689.41;;;13.62
69415;BMP280;56608;43.530;-5.652;2023-02-22T00:28:28;101700.63;;;13.60
69415;BMP280;56608;43.530;-5.652;2023-02-22T00:29:30;101693.22;;;13.48
69415;BMP280;56608;43.530;-5.652;2023-02-22T00:30:33;101693.19;;;13.52
69415;BMP280;56608;43.530;-5.652;2023-02-22T00:31:38;101691.53;;;13.54
69415;BMP280;56608;43.530;-5.652;2023-02-22T00:32:39;101697.63;;;13.58
69415;BMP280;56608;43.530;-5.652;2023-02-22T00:33:42;101692.78;;;13.66
69415;BMP280;56608;43.530;-5.652;2023-02-22T00:34:43;101688.56;;;13.65
69415;BMP280;56608;43.530;-5.652;2023-02-22T00:35:45;101687.37;;;13.66
69415;BMP280;56608;43.530;-5.652;2023-02-22T00:36:48;101691.69;;;13.63
69415;BMP280;56608;43.530;-5.652;2023-02-22T00:37:51;101683.12;;;13.52
69415;BMP280;56608;43.530;-5.652;2023-02-22T00:38:53;101679.44;;;13.46
69415;BMP280;56608;43.530;-5.652;2023-02-22T00:39:54;101685.38;;;13.54
69415;BMP280;56608;43.530;-5.652;2023-02-22T00:40:56;101675.56;;;13.47
69415;BMP280;56608;43.530;-5.652;2023-02-22T00:41:57;101680.06;;;13.50
69415;BMP280;56608;43.530;-5.652;2023-02-22T00:43:01;101677.03;;;13.48
69415;BMP280;56608;43.530;-5.652;2023-02-22T00:44:02;101680.44;;;13.52
69415;BMP280;56608;43.530;-5.652;2023-02-22T00:45:05;101683.91;;;13.53
69415;BMP280;56608;43.530;-5.652;2023-02-22T00:46:07;101674.78;;;13.47
69415;BMP280;56608;43.530;-5.652;2023-02-22T00:47:08;101677.78;;;13.49
69415;BMP280;56608;43.530;-5.652;2023-02-22T00:48:09;101679.84;;;13.45
69415;BMP280;56608;43.530;-5.652;2023-02-22T00:49:10;101675.09;;;13.49
69415;BMP280;56608;43.530;-5.652;2023-02-22T00:50:13;101683.53;;;13.51
69415;BMP280;56608;43.530;-5.652;2023-02-22T00:51:14;101681.50;;;13.55
69415;BMP280;56608;43.530;-5.652;2023-02-22T00:52:15;101680.06;;;13.50
69415;BMP280;56608;43.530;-5.652;2023-02-22T00:53:17;101675.56;;;13.47
69415;BMP280;56608;43.530;-5.652;2023-02-22T00:54:18;101678.38;;;13.56
69415;BMP280;56608;43.530;-5.652;2023-02-22T00:55:23;101676.44;;;13.57
69415;BMP280;56608;43.530;-5.652;2023-02-22T00:56:25;101681.63;;;13.51
69415;BMP280;56608;43.530;-5.652;2023-02-22T00:57:26;101683.31;;;13.45
69415;BMP280;56608;43.530;-5.652;2023-02-22T00:58:28;101683.59;;;13.35
69415;BMP280;56608;43.530;-5.652;2023-02-22T00:59:29;101681.16;;;13.40
69415;BMP280;56608;43.530;-5.652;2023-02-22T01:00:38;101675.31;;;13.42
69415;BMP280;56608;43.530;-5.652;2023-02-22T01:01:40;101682.44;;;13.48
69415;BMP280;56608;43.530;-5.652;2023-02-22T01:02:42;101676.72;;;13.46
69415;BMP280;56608;43.530;-5.652;2023-02-22T01:03:44;101686.22;;;13.51
69415;BMP280;56608;43.530;-5.652;2023-02-22T01:04:45;101685.47;;;13.50
69415;BMP280;56608;43.530;-5.652;2023-02-22T01:05:46;101682.88;;;13.47
69415;BMP280;56608;43.530;-5.652;2023-02-22T01:06:48;101680.28;;;13.43
69415;BMP280;56608;43.530;-5.652;2023-02-22T01:07:49;101684.28;;;13.39
69415;BMP280;56608;43.530;-5.652;2023-02-22T01:08:51;101670.66;;;13.42
69415;BMP280;56608;43.530;-5.652;2023-02-22T01:09:52;101674.22;;;13.39
69415;BMP280;56608;43.530;-5.652;2023-02-22T01:10:53;101677.78;;;13.36
69415;BMP280;56608;43.530;-5.652;2023-02-22T01:11:56;101688.03;;;13.41
69415;BMP280;56608;43.530;-5.652;2023-02-22T01:12:59;101677.25;;;13.41
69415;BMP280;56608;43.530;-5.652;2023-02-22T01:14:01;101681.63;;;13.51
69415;BMP280;56608;43.530;-5.652;2023-02-22T01:15:03;101686.53;;;13.40
69415;BMP280;56608;43.530;-5.652;2023-02-22T01:16:05;101688.69;;;13.32
69415;BMP280;56608;43.530;-5.652;2023-02-22T01:17:08;101678.72;;;13.29
69415;BMP280;56608;43.530;-5.652;2023-02-22T01:18:10;101685.66;;;13.30
69415;BMP280;56608;43.530;-5.652;2023-02-22T01:19:12;101690.28;;;13.30
69415;BMP280;56608;43.530;-5.652;2023-02-22T01:20:14;101698.03;;;13.28
69415;BMP280;56608;43.530;-5.652;2023-02-22T01:21:16;101693.84;;;13.27
69415;BMP280;56608;43.530;-5.652;2023-02-22T01:22:18;101699.72;;;13.22
69415;BMP280;56608;43.530;-5.652;2023-02-22T01:23:21;101695.72;;;13.14
69415;BMP280;56608;43.530;-5.652;2023-02-22T01:24:22;101705.84;;;13.10
69415;BMP280;56608;43.530;-5.652;2023-02-22T01:25:27;101705.34;;;13.15
69415;BMP280;56608;43.530;-5.652;2023-02-22T01:26:29;101705.81;;;13.26
69415;BMP280;56608;43.530;-5.652;2023-02-22T01:27:30;101701.50;;;13.28
69415;BMP280;56608;43.530;-5.652;2023-02-22T01:28:32;101710.09;;;13.40
69415;BMP280;56608;43.530;-5.652;2023-02-22T01:29:34;101701.88;;;13.43
69415;BMP280;56608;43.530;-5.652;2023-02-22T01:30:35;101699.72;;;13.38
69415;BMP280;56608;43.530;-5.652;2023-02-22T01:31:37;101710.59;;;13.35
69415;BMP280;56608;43.530;-5.652;2023-02-22T01:32:39;101712.78;;;13.40
69415;BMP280;56608;43.530;-5.652;2023-02-22T01:33:41;101701.53;;;13.41
69415;BMP280;56608;43.530;-5.652;2023-02-22T01:34:42;101701.97;;;13.40
69415;BMP280;56608;43.530;-5.652;2023-02-22T01:35:44;101701.31;;;13.36
69415;BMP280;56608;43.530;-5.652;2023-02-22T01:36:46;101698.25;;;13.21
69415;BMP280;56608;43.530;-5.652;2023-02-22T01:37:48;101702.59;;;13.31
69415;BMP280;56608;43.530;-5.652;2023-02-22T01:38:49;101692.66;;;13.28
69415;BMP280;56608;43.530;-5.652;2023-02-22T01:39:50;101698.50;;;13.26
69415;BMP280;56608;43.530;-5.652;2023-02-22T01:40:52;101684.75;;;13.21
69415;BMP280;56608;43.530;-5.652;2023-02-22T01:41:53;101691.16;;;13.27
69415;BMP280;56608;43.530;-5.652;2023-02-22T01:42:57;101698.53;;;13.23
69415;BMP280;56608;43.530;-5.652;2023-02-22T01:44:20;101701.25;;;13.23
69415;BMP280;56608;43.530;-5.652;2023-02-22T01:46:30;101695.19;;;13.19
69415;BMP280;56608;43.530;-5.652;2023-02-22T01:47:31;101688.81;;;13.13
69415;BMP280;56608;43.530;-5.652;2023-02-22T01:48:46;101701.44;;;13.16
69415;BMP280;56608;43.530;-5.652;2023-02-22T01:49:49;101696.38;;;13.18
69415;BMP280;56608;43.530;-5.652;2023-02-22T01:52:14;101698.19;;;13.08
69415;BMP280;56608;43.530;-5.652;2023-02-22T01:53:17;101698.63;;;13.07
69415;BMP280;56608;43.530;-5.652;2023-02-22T01:54:32;101701.50;;;13.00
69415;BMP280;56608;43.530;-5.652;2023-02-22T01:55:34;101696.75;;;13.04
69415;BMP280;56608;43.530;-5.652;2023-02-22T01:56:38;101697.94;;;13.03
69415;BMP280;56608;43.530;-5.652;2023-02-22T01:57:40;101693.81;;;12.98
69415;BMP280;56608;43.530;-5.652;2023-02-22T01:58:43;101702.50;;;13.06
69415;BMP280;56608;43.530;-5.652;2023-02-22T01:59:49;101701.72;;;13.05
69415;BMP280;56608;43.530;-5.652;2023-02-22T02:00:52;101709.41;;;13.07
69415;BMP280;56608;43.530;-5.652;2023-02-22T02:01:53;101698.28;;;13.05
69415;BMP280;56608;43.530;-5.652;2023-02-22T02:03:01;101709.06;;;13.05
69415;BMP280;56608;43.530;-5.652;2023-02-22T02:04:09;101700.78;;;12.95
69415;BMP280;56608;43.530;-5.652;2023-02-22T02:05:11;101693.41;;;12.83
69415;BMP280;56608;43.530;-5.652;2023-02-22T02:06:14;101704.00;;;12.90
69415;BMP280;56608;43.530;-5.652;2023-02-22T02:07:18;101703.78;;;13.01
69415;BMP280;56608;43.530;-5.652;2023-02-22T02:09:13;101699.03;;;13.05
69415;BMP280;56608;43.530;-5.652;2023-02-22T02:10:14;101699.13;;;13.02
69415;BMP280;56608;43.530;-5.652;2023-02-22T02:11:19;101694.06;;;13.04
69415;BMP280;56608;43.530;-5.652;2023-02-22T02:12:22;101692.53;;;13.03
69415;BMP280;56608;43.530;-5.652;2023-02-22T02:13:24;101688.25;;;13.05
69415;BMP280;56608;43.530;-5.652;2023-02-22T02:14:26;101696.22;;;13.09
69415;BMP280;56608;43.530;-5.652;2023-02-22T02:15:31;101692.81;;;13.08
69415;BMP280;56608;43.530;-5.652;2023-02-22T02:16:44;101693.97;;;13.07
69415;BMP280;56608;43.530;-5.652;2023-02-22T02:17:48;101692.69;;;12.95
69415;BMP280;56608;43.530;-5.652;2023-02-22T02:18:50;101689.16;;;12.99
69415;BMP280;56608;43.530;-5.652;2023-02-22T02:21:27;101687.00;;;12.93
69415;BMP280;56608;43.530;-5.652;2023-02-22T02:27:59;101687.59;;;13.01
69415;BMP280;56608;43.530;-5.652;2023-02-22T02:32:20;101683.00;;;13.14
69415;BMP280;56608;43.530;-5.652;2023-02-22T02:33:30;101676.31;;;13.19
69415;BMP280;56608;43.530;-5.652;2023-02-22T02:35:53;101676.66;;;13.21
69415;BMP280;56608;43.530;-5.652;2023-02-22T02:37:20;101677.34;;;13.09
69415;BMP280;56608;43.530;-5.652;2023-02-22T02:40:02;101665.16;;;13.04
69415;BMP280;56608;43.530;-5.652;2023-02-22T02:41:12;101668.25;;;13.03
69415;BMP280;56608;43.530;-5.652;2023-02-22T02:42:20;101668.94;;;13.07
69415;BMP280;56608;43.530;-5.652;2023-02-22T02:44:44;101664.72;;;13.06
69415;BMP280;56608;43.530;-5.652;2023-02-22T02:45:47;101664.94;;;13.11
69415;BMP280;56608;43.530;-5.652;2023-02-22T02:47:01;101663.53;;;13.07
69415;BMP280;56608;43.530;-5.652;2023-02-22T02:48:04;101662.38;;;13.08
69415;BMP280;56608;43.530;-5.652;2023-02-22T02:49:14;101660.75;;;13.10
69415;BMP280;56608;43.530;-5.652;2023-02-22T02:50:20;101657.63;;;13.12
69415;BMP280;56608;43.530;-5.652;2023-02-22T02:51:31;101660.44;;;13.08
69415;BMP280;56608;43.530;-5.652;2023-02-22T02:52:34;101648.13;;;13.07
69415;BMP280;56608;43.530;-5.652;2023-02-22T02:53:41;101656.44;;;13.13
69415;BMP280;56608;43.530;-5.652;2023-02-22T02:54:45;101659.12;;;13.13
69415;BMP280;56608;43.530;-5.652;2023-02-22T02:55:47;101651.03;;;13.13
69415;BMP280;56608;43.530;-5.652;2023-02-22T02:56:49;101645.31;;;13.11
69415;BMP280;56608;43.530;-5.652;2023-02-22T02:57:50;101647.78;;;13.05
69415;BMP280;56608;43.530;-5.652;2023-02-22T02:58:52;101644.97;;;13.09
69415;BMP280;56608;43.530;-5.652;2023-02-22T02:59:54;101648.53;;;13.06
69415;BMP280;56608;43.530;-5.652;2023-02-22T03:00:57;101639.56;;;13.09
69415;BMP280;56608;43.530;-5.652;2023-02-22T03:08:42;101640.25;;;13.13
69415;BMP280;56608;43.530;-5.652;2023-02-22T03:11:16;101649.53;;;13.12
69415;BMP280;56608;43.530;-5.652;2023-02-22T03:12:31;101639.47;;;13.00
69415;BMP280;56608;43.530;-5.652;2023-02-22T03:14:41;101642.59;;;13.11
69415;BMP280;56608;43.530;-5.652;2023-02-22T03:17:22;101636.03;;;13.12
69415;BMP280;56608;43.530;-5.652;2023-02-22T03:18:39;101630.50;;;13.03
69415;BMP280;56608;43.530;-5.652;2023-02-22T03:19:50;101632.00;;;13.04
69415;BMP280;56608;43.530;-5.652;2023-02-22T03:20:59;101634.06;;;13.00
69415;BMP280;56608;43.530;-5.652;2023-02-22T03:22:10;101631.00;;;12.98
69415;BMP280;56608;43.530;-5.652;2023-02-22T03:23:14;101635.88;;;13.03
69415;BMP280;56608;43.530;-5.652;2023-02-22T03:25:36;101643.84;;;12.93
69415;BMP280;56608;43.530;-5.652;2023-02-22T03:26:42;101632.81;;;12.88
69415;BMP280;56608;43.530;-5.652;2023-02-22T03:27:51;101631.59;;;12.89
69415;BMP280;56608;43.530;-5.652;2023-02-22T03:28:54;101632.38;;;12.89
69415;BMP280;56608;43.530;-5.652;2023-02-22T03:30:03;101644.78;;;12.87
69415;BMP280;56608;43.530;-5.652;2023-02-22T03:31:15;101627.94;;;12.83
69415;BMP280;56608;43.530;-5.652;2023-02-22T03:32:24;101630.44;;;12.90
69415;BMP280;56608;43.530;-5.652;2023-02-22T03:33:53;101629.47;;;12.97
69415;BMP280;56608;43.530;-5.652;2023-02-22T03:35:01;101622.84;;;13.01
69415;BMP280;56608;43.530;-5.652;2023-02-22T03:36:11;101630.50;;;13.03
69415;BMP280;56608;43.530;-5.652;2023-02-22T03:37:16;101632.00;;;13.04
69415;BMP280;56608;43.530;-5.652;2023-02-22T03:38:19;101622.84;;;13.01
69415;BMP280;56608;43.530;-5.652;2023-02-22T03:39:22;101625.03;;;13.06
69415;BMP280;56608;43.530;-5.652;2023-02-22T03:40:34;101624.25;;;13.06
69415;BMP280;56608;43.530;-5.652;2023-02-22T03:41:38;101624.59;;;13.08
69415;BMP280;56608;43.530;-5.652;2023-02-22T03:42:46;101624.25;;;13.06
69415;BMP280;56608;43.530;-5.652;2023-02-22T03:43:55;101621.56;;;13.06
69415;BMP280;56608;43.530;-5.652;2023-02-22T03:44:59;101629.53;;;13.09
69415;BMP280;56608;43.530;-5.652;2023-02-22T03:46:05;101623.72;;;13.11
69415;BMP280;56608;43.530;-5.652;2023-02-22T03:47:10;101615.63;;;13.11
69415;BMP280;56608;43.530;-5.652;2023-02-22T03:49:28;101625.78;;;13.07
69415;BMP280;56608;43.530;-5.652;2023-02-22T03:50:35;101624.34;;;13.02
69415;BMP280;56608;43.530;-5.652;2023-02-22T03:51:37;101625.78;;;12.90
69415;BMP280;56608;43.530;-5.652;2023-02-22T03:52:40;101623.63;;;12.85
69415;BMP280;56608;43.530;-5.652;2023-02-22T03:53:43;101628.16;;;12.88
69415;BMP280;56608;43.530;-5.652;2023-02-22T03:54:44;101625.47;;;12.88
69415;BMP280;56608;43.530;-5.652;2023-02-22T03:55:47;101619.41;;;12.84
69415;BMP280;56608;43.530;-5.652;2023-02-22T03:56:57;101626.91;;;12.93
69415;BMP280;56608;43.530;-5.652;2023-02-22T03:58:02;101626.78;;;12.97
69415;BMP280;56608;43.530;-5.652;2023-02-22T03:59:07;101627.66;;;12.93
69415;BMP280;56608;43.530;-5.652;2023-02-22T04:00:11;101624.84;;;12.97
69415;BMP280;56608;43.530;-5.652;2023-02-22T04:01:14;101624.78;;;13.01
69415;BMP280;56608;43.530;-5.652;2023-02-22T04:02:16;101625.22;;;12.99
69415;BMP280;56608;43.530;-5.652;2023-02-22T04:03:20;101626.63;;;13.04
69415;BMP280;56608;43.530;-5.652;2023-02-22T04:04:22;101617.34;;;13.05
69415;BMP280;56608;43.530;-5.652;2023-02-22T04:05:23;101627.38;;;13.04
69415;BMP280;56608;43.530;-5.652;2023-02-22T04:06:26;101629.66;;;13.06
69415;BMP280;56608;43.530;-5.652;2023-02-22T04:07:27;101621.13;;;13.07
69415;BMP280;56608;43.530;-5.652;2023-02-22T04:08:28;101623.37;;;13.09
69415;BMP280;56608;43.530;-5.652;2023-02-22T04:09:30;101626.28;;;13.02
69415;BMP280;56608;43.530;-5.652;2023-02-22T04:10:31;101626.37;;;12.98
69415;BMP280;56608;43.530;-5.652;2023-02-22T04:11:33;101621.38;;;12.97
69415;BMP280;56608;43.530;-5.652;2023-02-22T04:12:37;101622.84;;;13.01
69415;BMP280;56608;43.530;-5.652;2023-02-22T04:13:38;101627.91;;;12.99
69415;BMP280;56608;43.530;-5.652;2023-02-22T04:14:40;101628.66;;;13.00
69415;BMP280;56608;43.530;-5.652;2023-02-22T04:15:41;101623.91;;;13.04
69415;BMP280;56608;43.530;-5.652;2023-02-22T04:16:42;101615.06;;;13.03
69415;BMP280;56608;43.530;-5.652;2023-02-22T04:17:44;101625.78;;;13.07
69415;BMP280;56608;43.530;-5.652;2023-02-22T04:18:45;101628.06;;;13.08
69415;BMP280;56608;43.530;-5.652;2023-02-22T04:19:47;101616.41;;;12.95
69415;BMP280;56608;43.530;-5.652;2023-02-22T04:20:48;101620.75;;;12.92
69415;BMP280;56608;43.530;-5.652;2023-02-22T04:21:50;101627.31;;;12.91
69415;BMP280;56608;43.530;-5.652;2023-02-22T04:22:53;101624.28;;;12.89
69415;BMP280;56608;43.530;-5.652;2023-02-22T04:23:55;101624.62;;;12.91
69415;BMP280;56608;43.530;-5.652;2023-02-22T04:24:55;101624.97;;;12.93
69415;BMP280;56608;43.530;-5.652;2023-02-22T04:25:57;101626.97;;;12.89
69415;BMP280;56608;43.530;-5.652;2023-02-22T04:26:59;101624.81;;;12.84
69415;BMP280;56608;43.530;-5.652;2023-02-22T04:28:00;101623.63;;;12.85
69415;BMP280;56608;43.530;-5.652;2023-02-22T04:29:02;101622.09;;;12.84
69415;BMP280;56608;43.530;-5.652;2023-02-22T04:30:04;101625.56;;;12.85
69415;BMP280;56608;43.530;-5.652;2023-02-22T04:31:06;101617.47;;;12.85
69415;BMP280;56608;43.530;-5.652;2023-02-22T04:32:07;101619.06;;;12.82
69415;BMP280;56608;43.530;-5.652;2023-02-22T04:33:09;101627.09;;;12.86
69415;BMP280;56608;43.530;-5.652;2023-02-22T04:34:10;101624.16;;;12.80
69415;BMP280;56608;43.530;-5.652;2023-02-22T04:35:12;101625.69;;;12.81
69415;BMP280;56608;43.530;-5.652;2023-02-22T04:36:12;101614.13;;;12.81
69415;BMP280;56608;43.530;-5.652;2023-02-22T04:37:16;101621.00;;;12.82
69415;BMP280;56608;43.530;-5.652;2023-02-22T04:38:17;101622.53;;;12.83
69415;BMP280;56608;43.530;-5.652;2023-02-22T04:39:18;101620.94;;;12.85
69415;BMP280;56608;43.530;-5.652;2023-02-22T04:40:19;101620.69;;;12.80
69415;BMP280;56608;43.530;-5.652;2023-02-22T04:41:20;101628.59;;;12.87
69415;BMP280;56608;43.530;-5.652;2023-02-22T04:42:22;101616.37;;;12.82
69415;BMP280;56608;43.530;-5.652;2023-02-22T04:43:23;101620.06;;;12.88
69415;BMP280;56608;43.530;-5.652;2023-02-22T04:44:25;101622.75;;;12.88
69415;BMP280;56608;43.530;-5.652;2023-02-22T04:45:26;101623.09;;;12.90
69415;BMP280;56608;43.530;-5.652;2023-02-22T04:46:28;101619.22;;;12.91
69415;BMP280;56608;43.530;-5.652;2023-02-22T04:47:29;101622.56;;;12.95
69415;BMP280;56608;43.530;-5.652;2023-02-22T04:48:31;101622.56;;;12.95
69415;BMP280;56608;43.530;-5.652;2023-02-22T04:49:32;101628.97;;;13.02
69415;BMP280;56608;43.530;-5.652;2023-02-22T04:50:34;101626.63;;;13.04
69415;BMP280;56608;43.530;-5.652;2023-02-22T04:51:35;101626.28;;;13.02
69415;BMP280;56608;43.530;-5.652;2023-02-22T04:52:37;101630.50;;;13.03
69415;BMP280;56608;43.530;-5.652;2023-02-22T04:53:37;101639.25;;;13.07
69415;BMP280;56608;43.530;-5.652;2023-02-22T04:54:39;101626.63;;;13.04
69415;BMP280;56608;43.530;-5.652;2023-02-22T04:55:41;101619.69;;;13.03
69415;BMP280;56608;43.530;-5.652;2023-02-22T04:56:43;101626.63;;;13.04
69415;BMP280;56608;43.530;-5.652;2023-02-22T04:57:44;101628.91;;;13.05
69415;BMP280;56608;43.530;-5.652;2023-02-22T04:58:46;101633.87;;;13.07
69415;BMP280;56608;43.530;-5.652;2023-02-22T04:59:46;101632.00;;;13.04
69415;BMP280;56608;43.530;-5.652;2023-02-22T05:00:48;101624.50;;;12.95
69415;BMP280;56608;43.530;-5.652;2023-02-22T05:01:49;101626.78;;;12.97
69415;BMP280;56608;43.530;-5.652;2023-02-22T05:02:51;101627.31;;;12.91
69415;BMP280;56608;43.530;-5.652;2023-02-22T05:03:52;101628.84;;;12.92
69415;BMP280;56608;43.530;-5.652;2023-02-22T05:04:54;101622.09;;;12.84
69415;BMP280;56608;43.530;-5.652;2023-02-22T05:05:56;101625.91;;;12.87
69415;BMP280;56608;43.530;-5.652;2023-02-22T05:06:56;101634.75;;;12.87
69415;BMP280;56608;43.530;-5.652;2023-02-22T05:07:58;101635.59;;;12.84
69415;BMP280;56608;43.530;-5.652;2023-02-22T05:09:00;101639.81;;;12.85
69415;BMP280;56608;43.530;-5.652;2023-02-22T05:10:01;101637.13;;;12.85
69415;BMP280;56608;43.530;-5.652;2023-02-22T05:11:03;101630.19;;;12.84
69415;BMP280;56608;43.530;-5.652;2023-02-22T05:12:05;101642.41;;;12.89
69415;BMP280;56608;43.530;-5.652;2023-02-22T05:13:07;101646.72;;;12.86
69415;BMP280;56608;43.530;-5.652;2023-02-22T05:14:09;101638.53;;;12.90
69415;BMP280;56608;43.530;-5.652;2023-02-22T05:15:19;101647.37;;;12.90
69415;BMP280;56608;43.530;-5.652;2023-02-22T05:16:19;101648.66;;;12.86
69415;BMP280;56608;43.530;-5.652;2023-02-22T05:17:21;101647.78;;;12.89
69415;BMP280;56608;43.530;-5.652;2023-02-22T05:18:22;101638.22;;;12.88
69415;BMP280;56608;43.530;-5.652;2023-02-22T05:19:24;101641.56;;;12.92
69415;BMP280;56608;43.530;-5.652;2023-02-22T05:20:28;101651.69;;;12.88
69415;BMP280;56608;43.530;-5.652;2023-02-22T05:21:30;101646.03;;;12.82
69415;BMP280;56608;43.530;-5.652;2023-02-22T05:22:31;101635.94;;;12.86
69415;BMP280;56608;43.530;-5.652;2023-02-22T05:23:33;101650.06;;;12.90
69415;BMP280;56608;43.530;-5.652;2023-02-22T05:24:34;101645.19;;;12.85
69415;BMP280;56608;43.530;-5.652;2023-02-22T05:25:36;101644.69;;;12.90
69415;BMP280;56608;43.530;-5.652;2023-02-22T05:26:38;101644.25;;;12.92
69415;BMP280;56608;43.530;-5.652;2023-02-22T05:27:40;101641.31;;;12.86
69415;BMP280;56608;43.530;-5.652;2023-02-22T05:28:42;101636.25;;;12.88
69415;BMP280;56608;43.530;-5.652;2023-02-22T05:29:43;101637.34;;;12.91
69415;BMP280;56608;43.530;-5.652;2023-02-22T05:30:45;101638.53;;;12.90
69415;BMP280;56608;43.530;-5.652;2023-02-22T05:31:46;101641.62;;;12.88
69415;BMP280;56608;43.530;-5.652;2023-02-22T05:32:48;101632.38;;;12.89
69415;BMP280;56608;43.530;-5.652;2023-02-22T05:33:49;101638.53;;;12.90
69415;BMP280;56608;43.530;-5.652;2023-02-22T05:34:51;101635.50;;;12.88
69415;BMP280;56608;43.530;-5.652;2023-02-22T05:35:52;101634.22;;;12.92
69415;BMP280;56608;43.530;-5.652;2023-02-22T05:36:56;101642.22;;;12.96
69415;BMP280;56608;43.530;-5.652;2023-02-22T05:37:57;101639.97;;;12.94
69415;BMP280;56608;43.530;-5.652;2023-02-22T05:39:02;101643.84;;;12.93
69415;BMP280;56608;43.530;-5.652;2023-02-22T05:40:04;101641.03;;;12.97
69415;BMP280;56608;43.530;-5.652;2023-02-22T05:41:08;101646.09;;;12.95
69415;BMP280;56608;43.530;-5.652;2023-02-22T05:42:11;101648.47;;;12.93
69415;BMP280;56608;43.530;-5.652;2023-02-22T05:43:12;101642.97;;;12.97
69415;BMP280;56608;43.530;-5.652;2023-02-22T05:44:15;101648.69;;;12.99
69415;BMP280;56608;43.530;-5.652;2023-02-22T05:45:18;101647.44;;;13.03
69415;BMP280;56608;43.530;-5.652;2023-02-22T05:46:20;101648.38;;;12.97
69415;BMP280;56608;43.530;-5.652;2023-02-22T05:47:22;101634.00;;;12.87
69415;BMP280;56608;43.530;-5.652;2023-02-22T05:48:23;101641.31;;;12.86
69415;BMP280;56608;43.530;-5.652;2023-02-22T05:49:24;101644.88;;;12.83
69415;BMP280;56608;43.530;-5.652;2023-02-22T05:50:26;101648.84;;;12.79
69415;BMP280;56608;43.530;-5.652;2023-02-22T05:51:26;101635.78;;;12.77
69415;BMP280;56608;43.530;-5.652;2023-02-22T05:52:28;101654.13;;;12.82
69415;BMP280;56608;43.530;-5.652;2023-02-22T05:53:30;101654.13;;;12.82
69415;BMP280;56608;43.530;-5.652;2023-02-22T05:54:31;101647.25;;;12.81
69415;BMP280;56608;43.530;-5.652;2023-02-22T05:55:32;101645.72;;;12.80
69415;BMP280;56608;43.530;-5.652;2023-02-22T05:56:33;101650.19;;;12.87
69415;BMP280;56608;43.530;-5.652;2023-02-22T05:57:35;101646.03;;;12.82
69415;BMP280;56608;43.530;-5.652;2023-02-22T05:58:35;101650.94;;;12.87
69415;BMP280;56608;43.530;-5.652;2023-02-22T05:59:36;101652.88;;;12.87
69415;BMP280;56608;43.530;-5.652;2023-02-22T06:00:38;101647.91;;;12.85
69415;BMP280;56608;43.530;-5.652;2023-02-22T06:01:39;101655.56;;;12.87
69415;BMP280;56608;43.530;-5.652;2023-02-22T06:02:41;101660.22;;;12.86
69415;BMP280;56608;43.530;-5.652;2023-02-22T06:03:46;101648.66;;;12.86
69415;BMP280;56608;43.530;-5.652;2023-02-22T06:04:47;101643.34;;;12.82
69415;BMP280;56608;43.530;-5.652;2023-02-22T06:05:49;101644.56;;;12.81
69415;BMP280;56608;43.530;-5.652;2023-02-22T06:06:50;101652.94;;;12.83
69415;BMP280;56608;43.530;-5.652;2023-02-22T06:07:52;101651.78;;;12.84
69415;BMP280;56608;43.530;-5.652;2023-02-22T06:08:54;101652.94;;;12.83
69415;BMP280;56608;43.530;-5.652;2023-02-22T06:09:54;101640.53;;;12.73
69415;BMP280;56608;43.530;-5.652;2023-02-22T06:10:56;101653.59;;;12.75
69415;BMP280;56608;43.530;-5.652;2023-02-22T06:11:57;101644.28;;;12.76
69415;BMP280;56608;43.530;-5.652;2023-02-22T06:13:01;101654.31;;;12.75
69415;BMP280;56608;43.530;-5.652;2023-02-22T06:14:02;101655.84;;;12.76
69415;BMP280;56608;43.530;-5.652;2023-02-22T06:15:04;101647.81;;;12.73
69415;BMP280;56608;43.530;-5.652;2023-02-22T06:16:06;101647.81;;;12.73
69415;BMP280;56608;43.530;-5.652;2023-02-22T06:17:08;101647.59;;;12.67
69415;BMP280;56608;43.530;-5.652;2023-02-22T06:18:09;101650.59;;;12.69
69415;BMP280;56608;43.530;-5.652;2023-02-22T06:19:11;101648.75;;;12.66
69415;BMP280;56608;43.530;-5.652;2023-02-22T06:20:15;101650.69;;;12.66
69415;BMP280;56608;43.530;-5.652;2023-02-22T06:21:17;101649.19;;;12.65
69415;BMP280;56608;43.530;-5.652;2023-02-22T06:22:18;101647.66;;;12.64
69415;BMP280;56608;43.530;-5.652;2023-02-22T06:23:20;101652.97;;;12.67
69415;BMP280;56608;43.530;-5.652;2023-02-22T06:24:22;101648.84;;;12.63
69415;BMP280;56608;43.530;-5.652;2023-02-22T06:25:28;101641.94;;;12.62